Grayville, Illinois
Current Conditions -  °F | °C
As of 12:35 AM on Saturday 20 Dec 2014 (Local Time) from KCUL Reporting Station
Overcast Overcast  
Wind Chill: 34°   Ceiling: 5500
Heat Index: 34°   Visibility: 10mi
Dew Point: 30°   Wind: 3mph
Humidity: 85%   Direction: 70°ENE
Pressure: 30.28"   Gusts: NA
Location:  38.26°N, 88°W
Report Text: KCUL 200635Z AUTO 07003KT 10SM BKN055 BKN080 OVC110 01/M01 A3028 RMK AO2 T00121011
Loading
Personal Weather Stations






























Interactive Weather Map New forecast layout! Learn more

10-Day Weather Forecast

Advertisements
Track Severe Weather on mobile